aviador You're here:

KRST Decoded Metar

ROCHESTER in MN, USA
Report Time2018-01-18 09:54:00
UTC Time2018-01-18 10:09:07
Flight Rules vfr VFR
Wind220° at 09 kt
W.Decomp.*RWY 20: 8.5 kt HW 2.9 kt RCW
RWY 13: 0.2 kt HW 9.0 kt RCW
W.Rank220° ranks 21
Current wind is below 220° avg. (9.4)
Visibility9999 m
Phenomena:N/A
Clouds:N/A
Expected CloudBase > 1,200 ft AGL from Temp-Dew spread
CeilingNone
Temp-8°C (ISA -20)
Dew Point-11°C (79% RH)
AAT-14.4°C
QNH1016 hPa
Density Alt-1,266 ft
Elevation1,322 ft
Report Wrong Elevation
Raw Report
KRST 180954Z AUTO 22009KT 10SM CLR M08/M11 A3000 RMK AO2 SLP183
T10831106=

Extra information for KRST:More info

Metar Taf Metar & Taf Last 4 Metars F.Rules Stats Wind Profile Meteogram Temp Stats Airport Information Weather charts Add Link Nearby VenuesMetar ALERT Operation Metar Decoded Social comments

AIRNAV info for KRST